createdAt,value
2019-02-18T00:02:02.909Z,60.50
2019-02-18T00:07:14.578Z,60.60
2019-02-18T00:12:15.339Z,61.00
2019-02-18T00:17:20.735Z,61.50
2019-02-18T00:22:26.130Z,61.90
2019-02-18T00:27:31.515Z,61.70
2019-02-18T00:32:36.815Z,62.20
2019-02-18T00:37:42.162Z,62.20
2019-02-18T00:42:47.540Z,62.40
2019-02-18T00:47:52.923Z,62.00
2019-02-18T00:52:58.221Z,61.40
2019-02-18T00:58:03.507Z,61.80
2019-02-18T01:03:08.944Z,62.30
2019-02-18T01:08:14.363Z,62.40
2019-02-18T01:13:19.707Z,62.70
2019-02-18T01:18:25.007Z,62.60
2019-02-18T01:23:30.275Z,63.00
2019-02-18T01:28:35.576Z,63.20
2019-02-18T01:33:40.868Z,63.50
2019-02-18T01:38:46.216Z,63.50
2019-02-18T01:43:51.543Z,64.10
2019-02-18T01:48:56.864Z,64.80
2019-02-18T01:54:02.122Z,64.90
2019-02-18T01:59:07.453Z,65.40
2019-02-18T02:04:12.753Z,65.40
2019-02-18T02:09:18.175Z,66.00
2019-02-18T02:14:23.629Z,65.50
2019-02-18T02:19:28.925Z,65.80
2019-02-18T02:24:34.301Z,65.80
2019-02-18T02:29:39.614Z,65.90
2019-02-18T02:34:44.950Z,66.20
2019-02-18T02:39:50.418Z,66.20
2019-02-18T02:44:55.730Z,66.60
2019-02-18T02:50:01.043Z,66.40
2019-02-18T02:55:06.586Z,67.10
2019-02-18T03:00:12.162Z,66.40
2019-02-18T03:05:17.447Z,66.40
2019-02-18T03:10:22.774Z,66.40
2019-02-18T03:15:28.079Z,66.70
2019-02-18T03:20:33.377Z,66.90
2019-02-18T03:25:38.705Z,67.00
2019-02-18T03:31:13.027Z,66.80
2019-02-18T03:36:18.587Z,67.10
2019-02-18T03:41:24.048Z,67.00
2019-02-18T03:46:29.455Z,67.00
2019-02-18T03:51:34.889Z,67.00
2019-02-18T03:56:40.624Z,66.70
2019-02-18T04:01:46.432Z,66.80
2019-02-18T04:06:52.365Z,67.10
2019-02-18T04:11:58.592Z,67.20
2019-02-18T04:17:04.567Z,67.30
2019-02-18T04:22:10.643Z,67.30
2019-02-18T04:27:16.200Z,67.40
2019-02-18T04:32:21.592Z,68.10
2019-02-18T04:37:26.937Z,67.90
2019-02-18T04:42:32.316Z,68.10
2019-02-18T04:47:37.654Z,68.10
2019-02-18T04:52:42.992Z,68.50
2019-02-18T04:57:48.383Z,68.80
2019-02-18T05:02:54.160Z,68.90
2019-02-18T05:07:59.454Z,69.40
2019-02-18T05:13:04.744Z,69.40
2019-02-18T05:18:10.089Z,69.70
2019-02-18T05:23:15.519Z,69.50
2019-02-18T05:28:20.885Z,69.80
2019-02-18T05:33:28.574Z,70.00
2019-02-18T05:38:33.953Z,70.30
2019-02-18T05:43:39.311Z,70.30
2019-02-18T05:48:44.704Z,70.20
2019-02-18T05:53:49.965Z,70.10
2019-02-18T05:58:55.245Z,70.50
2019-02-18T06:04:00.734Z,70.60
2019-02-18T06:09:06.338Z,70.70
2019-02-18T06:14:11.646Z,70.70
2019-02-18T06:19:16.993Z,71.50
2019-02-18T06:24:22.328Z,71.60
2019-02-18T06:29:27.632Z,71.70
2019-02-18T06:34:32.953Z,71.90
2019-02-18T06:39:41.784Z,72.20
2019-02-18T06:44:53.696Z,72.20
2019-02-18T06:49:59.298Z,72.20
2019-02-18T06:55:04.674Z,72.20
2019-02-18T07:00:22.940Z,72.30
2019-02-18T07:05:40.091Z,72.20
2019-02-18T07:11:04.410Z,72.00
2019-02-18T07:16:09.911Z,71.80
2019-02-18T07:21:15.268Z,72.30
2019-02-18T07:26:20.609Z,71.60
2019-02-18T07:31:25.920Z,71.20
2019-02-18T07:36:31.242Z,71.10
2019-02-18T07:41:36.537Z,70.80
2019-02-18T07:46:41.960Z,70.20
2019-02-18T07:51:47.272Z,70.00
2019-02-18T07:56:52.643Z,63.40
2019-02-18T08:01:58.003Z,54.00
2019-02-18T08:07:03.337Z,48.50
2019-02-18T08:12:08.751Z,44.50
2019-02-18T08:17:14.195Z,39.70
2019-02-18T08:22:19.528Z,38.20
2019-02-18T08:27:24.869Z,34.90
2019-02-18T08:32:30.174Z,32.10
2019-02-18T08:37:35.507Z,30.90
2019-02-18T08:42:40.822Z,29.40
2019-02-18T08:47:46.148Z,27.70
2019-02-18T08:52:51.439Z,26.00
2019-02-18T08:57:56.961Z,25.10
2019-02-18T09:03:02.313Z,24.10
2019-02-18T09:08:07.663Z,23.40
2019-02-18T09:13:13.013Z,22.70
2019-02-18T09:18:18.337Z,22.20
2019-02-18T09:23:37.331Z,21.90
2019-02-18T09:28:42.797Z,21.60
2019-02-18T09:33:48.091Z,20.80
2019-02-18T09:38:53.664Z,19.60
2019-02-18T09:43:59.150Z,18.90
2019-02-18T09:49:04.518Z,18.40
2019-02-18T09:54:09.890Z,18.00
2019-02-18T09:59:15.259Z,17.90
2019-02-18T10:04:22.535Z,18.50
2019-02-18T10:09:27.758Z,20.50
2019-02-18T10:14:33.113Z,24.50
2019-02-18T10:19:38.498Z,28.30
2019-02-18T10:24:50.407Z,31.80
2019-02-18T10:29:50.957Z,34.70
2019-02-18T10:34:56.467Z,37.10
2019-02-18T10:40:01.968Z,39.00
2019-02-18T10:45:09.422Z,40.20
2019-02-18T10:50:14.800Z,41.70
2019-02-18T10:55:20.247Z,42.30
2019-02-18T11:00:25.801Z,43.00
2019-02-18T11:05:31.186Z,43.30
2019-02-18T11:10:36.706Z,44.00
2019-02-18T11:15:42.095Z,44.30
2019-02-18T11:20:47.466Z,44.80
2019-02-18T11:25:52.825Z,45.00
2019-02-18T11:30:58.164Z,45.00
2019-02-18T11:36:03.569Z,45.00
2019-02-18T11:41:08.882Z,45.30
2019-02-18T11:46:14.211Z,45.30
2019-02-18T11:51:19.493Z,44.90
2019-02-18T11:56:25.122Z,45.00
2019-02-18T12:01:32.366Z,44.80
2019-02-18T12:06:37.769Z,44.60
2019-02-18T12:11:43.136Z,44.40
2019-02-18T12:16:48.460Z,44.20
2019-02-18T12:21:53.833Z,43.90
2019-02-18T12:26:59.261Z,43.80
2019-02-18T12:32:04.683Z,43.50
2019-02-18T12:37:10.370Z,43.60
2019-02-18T12:42:15.730Z,43.30
2019-02-18T12:47:21.042Z,43.20
2019-02-18T12:52:26.713Z,43.00
2019-02-18T12:57:32.210Z,42.60
2019-02-18T13:02:44.254Z,42.00
2019-02-18T13:07:44.705Z,41.90
2019-02-18T13:12:50.125Z,41.70
2019-02-18T13:17:55.587Z,41.20
2019-02-18T13:23:01.151Z,41.10
2019-02-18T13:28:08.690Z,41.70
2019-02-18T13:33:13.990Z,41.00
2019-02-18T13:38:19.517Z,40.80
2019-02-18T13:43:25.023Z,40.70
2019-02-18T13:48:30.431Z,40.50
2019-02-18T13:53:35.839Z,40.40
2019-02-18T13:58:41.158Z,40.20
2019-02-18T14:03:46.777Z,40.30
2019-02-18T14:08:52.086Z,40.20
2019-02-18T14:13:57.471Z,39.80
2019-02-18T14:19:02.885Z,39.40
2019-02-18T14:24:08.305Z,39.20
2019-02-18T14:29:13.736Z,38.70
2019-02-18T14:34:19.173Z,38.20
2019-02-18T14:39:25.078Z,38.30
2019-02-18T14:44:30.487Z,38.50
2019-02-18T14:49:36.159Z,38.00
2019-02-18T14:54:41.478Z,37.30
2019-02-18T14:59:46.866Z,33.60
2019-02-18T15:04:52.361Z,33.30
2019-02-18T15:09:57.766Z,32.50
2019-02-18T15:15:03.194Z,32.90
2019-02-18T15:20:08.630Z,33.60
2019-02-18T15:25:14.585Z,34.00
2019-02-18T15:30:20.076Z,34.60
2019-02-18T15:35:25.463Z,35.20
2019-02-18T15:40:30.755Z,35.80
2019-02-18T15:45:36.211Z,36.40
2019-02-18T15:50:41.690Z,37.00
2019-02-18T15:55:46.981Z,37.50
2019-02-18T16:00:52.456Z,38.10
2019-02-18T16:05:57.879Z,38.70
2019-02-18T16:11:03.374Z,39.10
2019-02-18T16:16:08.777Z,39.70
2019-02-18T16:21:14.157Z,40.40
2019-02-18T16:26:19.604Z,40.80
2019-02-18T16:31:25.033Z,41.30
2019-02-18T16:36:30.505Z,41.70
2019-02-18T16:41:36.309Z,42.40
2019-02-18T16:46:41.712Z,42.80
2019-02-18T16:51:47.483Z,43.40
2019-02-18T16:56:52.780Z,44.10
2019-02-18T17:01:58.333Z,44.70
2019-02-18T17:07:04.013Z,45.30
2019-02-18T17:12:09.836Z,45.60
2019-02-18T17:17:15.342Z,46.20
2019-02-18T17:22:20.923Z,46.50
2019-02-18T17:27:26.383Z,46.70
2019-02-18T17:32:31.726Z,46.90
2019-02-18T17:37:37.028Z,47.30
2019-02-18T17:42:42.607Z,47.50
2019-02-18T17:47:47.985Z,47.80
2019-02-18T17:52:53.819Z,48.20
2019-02-18T17:57:59.575Z,48.50
2019-02-18T18:03:05.173Z,49.40
2019-02-18T18:08:10.583Z,48.90
2019-02-18T18:13:19.526Z,49.30
2019-02-18T18:18:23.441Z,49.90
2019-02-18T18:23:30.529Z,50.40
2019-02-18T18:28:36.023Z,50.70
2019-02-18T18:33:41.380Z,51.00
2019-02-18T18:38:46.825Z,51.60
2019-02-18T18:43:52.837Z,51.60
2019-02-18T18:48:58.230Z,51.90
2019-02-18T18:54:03.687Z,52.00
2019-02-18T18:59:09.737Z,52.50
2019-02-18T19:04:15.603Z,52.70
2019-02-18T19:09:21.244Z,53.10
2019-02-18T19:14:26.706Z,53.20
2019-02-18T19:19:32.009Z,53.80
2019-02-18T19:24:37.315Z,54.00
2019-02-18T19:29:42.948Z,54.20
2019-02-18T19:34:48.463Z,54.40
2019-02-18T19:39:53.832Z,54.70
2019-02-18T19:44:59.161Z,54.90
2019-02-18T19:50:04.766Z,55.20
2019-02-18T19:55:10.193Z,55.30
2019-02-18T20:00:17.031Z,55.30
2019-02-18T20:05:22.530Z,55.60
2019-02-18T20:10:27.957Z,55.80
2019-02-18T20:15:33.263Z,56.30
2019-02-18T20:20:38.589Z,56.50
2019-02-18T20:25:43.977Z,56.60
2019-02-18T20:30:49.430Z,56.80
2019-02-18T20:35:54.798Z,57.00
2019-02-18T20:41:00.127Z,57.30
2019-02-18T20:46:05.441Z,57.60
2019-02-18T20:51:10.879Z,57.70
2019-02-18T20:56:16.290Z,57.90
2019-02-18T21:01:21.909Z,58.10
2019-02-18T21:06:27.218Z,58.40
2019-02-18T21:11:32.657Z,58.50
2019-02-18T21:16:38.016Z,58.60
2019-02-18T21:21:43.597Z,58.70
2019-02-18T21:26:49.821Z,58.70
2019-02-18T21:31:55.178Z,58.90
2019-02-18T21:37:00.890Z,59.10
2019-02-18T21:42:06.425Z,59.40
2019-02-18T21:47:12.053Z,59.50
2019-02-18T21:52:17.575Z,59.60
2019-02-18T21:57:23.062Z,59.80
2019-02-18T22:02:28.638Z,60.00
2019-02-18T22:07:34.192Z,60.20
2019-02-18T22:12:39.554Z,60.20
2019-02-18T22:17:44.967Z,60.30
2019-02-18T22:22:50.833Z,60.30
2019-02-18T22:27:56.397Z,60.50
2019-02-18T22:33:01.866Z,60.80
2019-02-18T22:38:07.250Z,60.80
2019-02-18T22:43:14.689Z,61.10
2019-02-18T22:48:20.113Z,61.10
2019-02-18T22:53:25.484Z,61.00
2019-02-18T22:58:31.467Z,61.00
2019-02-18T23:03:36.830Z,60.80
2019-02-18T23:08:42.559Z,61.00
2019-02-18T23:13:47.879Z,61.10
2019-02-18T23:18:53.212Z,61.00
2019-02-18T23:23:58.877Z,61.00
2019-02-18T23:29:04.316Z,61.10
2019-02-18T23:34:09.629Z,61.20
2019-02-18T23:39:14.949Z,61.50
2019-02-18T23:44:20.305Z,61.60
2019-02-18T23:49:25.679Z,61.70
2019-02-18T23:54:31.000Z,61.80
2019-02-18T23:59:36.406Z,61.90
